createdAt,value
2022-10-10T00:02:20.996Z,100.00
2022-10-10T00:04:47.503Z,100.00
2022-10-10T00:07:14.085Z,100.00
2022-10-10T00:09:40.677Z,100.00
2022-10-10T00:12:07.229Z,100.00
2022-10-10T00:14:33.793Z,100.00
2022-10-10T00:17:00.390Z,100.00
2022-10-10T00:19:27.020Z,100.00
2022-10-10T00:21:54.227Z,100.00
2022-10-10T00:24:20.990Z,100.00
2022-10-10T00:26:47.561Z,100.00
2022-10-10T00:29:14.150Z,100.00
2022-10-10T00:31:40.759Z,100.00
2022-10-10T00:34:07.345Z,100.00
2022-10-10T00:36:33.904Z,100.00
2022-10-10T00:39:01.590Z,100.00
2022-10-10T00:41:29.356Z,100.00
2022-10-10T00:44:06.071Z,100.00
2022-10-10T00:46:32.694Z,100.00
2022-10-10T00:48:59.371Z,100.00
2022-10-10T00:51:26.071Z,100.00
2022-10-10T00:53:55.604Z,100.00
2022-10-10T00:56:25.342Z,100.00
2022-10-10T00:58:53.894Z,100.00
2022-10-10T01:01:20.615Z,100.00
2022-10-10T01:03:47.215Z,100.00
2022-10-10T01:06:13.996Z,100.00
2022-10-10T01:08:40.968Z,100.00
2022-10-10T01:11:10.441Z,100.00
2022-10-10T01:13:39.992Z,100.00
2022-10-10T01:16:12.768Z,100.00
2022-10-10T01:19:08.638Z,100.00
2022-10-10T01:21:58.586Z,100.00
2022-10-10T01:24:42.195Z,100.00
2022-10-10T01:27:26.477Z,100.00
2022-10-10T01:29:59.916Z,100.00
2022-10-10T01:32:26.560Z,100.00
2022-10-10T01:34:53.131Z,100.00
2022-10-10T01:37:21.872Z,100.00
2022-10-10T01:39:54.593Z,100.00
2022-10-10T01:42:28.328Z,100.00
2022-10-10T01:44:55.154Z,100.00
2022-10-10T01:47:22.565Z,100.00
2022-10-10T01:49:51.401Z,100.00
2022-10-10T01:52:18.062Z,100.00
2022-10-10T01:54:59.846Z,100.00
2022-10-10T01:57:26.389Z,100.00
2022-10-10T01:59:52.945Z,100.00
2022-10-10T02:02:37.971Z,100.00
2022-10-10T02:05:09.031Z,100.00
2022-10-10T02:07:40.475Z,100.00
2022-10-10T02:10:08.210Z,100.00
2022-10-10T02:12:36.231Z,100.00
2022-10-10T02:15:11.250Z,100.00
2022-10-10T02:17:38.916Z,100.00
2022-10-10T02:20:06.471Z,100.00
2022-10-10T02:22:34.175Z,100.00
2022-10-10T02:25:00.878Z,100.00
2022-10-10T02:27:50.815Z,100.00
2022-10-10T02:30:18.027Z,100.00
2022-10-10T02:32:49.503Z,100.00
2022-10-10T02:35:23.188Z,100.00
2022-10-10T02:37:51.703Z,100.00
2022-10-10T02:40:20.841Z,100.00
2022-10-10T02:42:47.961Z,100.00
2022-10-10T02:45:14.971Z,100.00
2022-10-10T02:47:41.645Z,100.00
2022-10-10T02:50:08.519Z,100.00
2022-10-10T02:52:35.053Z,100.00
2022-10-10T02:55:01.635Z,100.00
2022-10-10T02:57:28.269Z,100.00
2022-10-10T02:59:54.881Z,100.00
2022-10-10T03:02:22.476Z,100.00
2022-10-10T03:04:53.141Z,100.00
2022-10-10T03:07:22.684Z,100.00
2022-10-10T03:09:49.759Z,100.00
2022-10-10T03:12:18.479Z,100.00
2022-10-10T03:14:48.433Z,100.00
2022-10-10T03:17:17.057Z,100.00
2022-10-10T03:19:43.658Z,100.00
2022-10-10T03:22:10.405Z,100.00
2022-10-10T03:24:37.092Z,100.00
2022-10-10T03:27:04.703Z,100.00
2022-10-10T03:29:31.338Z,100.00
2022-10-10T03:32:00.815Z,100.00
2022-10-10T03:34:28.976Z,100.00
2022-10-10T03:36:57.329Z,100.00
2022-10-10T03:39:29.846Z,100.00
2022-10-10T03:42:00.615Z,100.00
2022-10-10T03:44:28.316Z,100.00
2022-10-10T03:46:55.433Z,100.00
2022-10-10T03:49:22.408Z,100.00
2022-10-10T03:51:49.586Z,100.00
2022-10-10T03:54:20.589Z,100.00
2022-10-10T03:56:51.769Z,100.00
2022-10-10T03:59:20.776Z,100.00
2022-10-10T04:01:47.403Z,100.00
2022-10-10T04:04:14.047Z,100.00
2022-10-10T04:06:40.657Z,100.00
2022-10-10T04:09:07.288Z,100.00
2022-10-10T04:11:35.268Z,100.00
2022-10-10T04:14:01.801Z,100.00
2022-10-10T04:16:28.378Z,100.00
2022-10-10T04:18:54.992Z,100.00
2022-10-10T04:21:21.581Z,100.00
2022-10-10T04:23:48.157Z,100.00
2022-10-10T04:26:14.715Z,100.00
2022-10-10T04:28:41.391Z,100.00
2022-10-10T04:31:08.219Z,100.00
2022-10-10T04:33:34.836Z,100.00
2022-10-10T04:36:01.435Z,100.00
2022-10-10T04:38:28.572Z,100.00
2022-10-10T04:40:55.420Z,100.00
2022-10-10T04:43:22.024Z,100.00
2022-10-10T04:45:48.682Z,100.00
2022-10-10T04:48:15.327Z,100.00
2022-10-10T04:50:41.986Z,100.00
2022-10-10T04:53:08.614Z,100.00
2022-10-10T04:55:35.202Z,100.00
2022-10-10T04:58:01.795Z,100.00
2022-10-10T05:00:28.414Z,100.00
2022-10-10T05:02:55.117Z,100.00
2022-10-10T05:05:21.801Z,100.00
2022-10-10T05:07:51.853Z,100.00
2022-10-10T05:10:21.857Z,100.00
2022-10-10T05:12:48.833Z,100.00
2022-10-10T05:15:15.647Z,100.00
2022-10-10T05:17:42.228Z,100.00
2022-10-10T05:20:09.205Z,100.00
2022-10-10T05:22:35.767Z,100.00
2022-10-10T05:25:02.657Z,100.00
2022-10-10T05:27:29.257Z,100.00
2022-10-10T05:29:56.189Z,100.00
2022-10-10T05:32:23.146Z,100.00
2022-10-10T05:34:49.793Z,100.00
2022-10-10T05:37:16.372Z,100.00
2022-10-10T05:39:42.963Z,100.00
2022-10-10T05:42:10.650Z,100.00
2022-10-10T05:44:37.308Z,100.00
2022-10-10T05:47:04.474Z,100.00
2022-10-10T05:49:31.065Z,100.00
2022-10-10T05:51:57.668Z,100.00
2022-10-10T05:54:24.277Z,100.00
2022-10-10T05:56:50.881Z,100.00
2022-10-10T05:59:17.459Z,100.00
2022-10-10T06:01:44.019Z,100.00
2022-10-10T06:04:10.676Z,100.00
2022-10-10T06:06:37.189Z,100.00
2022-10-10T06:09:04.011Z,100.00
2022-10-10T06:11:30.641Z,100.00
2022-10-10T06:13:57.413Z,100.00
2022-10-10T06:16:27.237Z,100.00
2022-10-10T06:18:53.995Z,100.00
2022-10-10T06:21:20.587Z,100.00
2022-10-10T06:23:47.227Z,100.00
2022-10-10T06:26:14.268Z,100.00
2022-10-10T06:28:40.908Z,100.00
2022-10-10T06:31:08.455Z,100.00
2022-10-10T06:33:37.293Z,100.00
2022-10-10T06:36:05.444Z,100.00
2022-10-10T06:38:32.429Z,100.00
2022-10-10T06:41:02.730Z,100.00
2022-10-10T06:43:29.369Z,100.00
2022-10-10T06:45:56.111Z,100.00
2022-10-10T06:48:22.779Z,100.00
2022-10-10T06:50:59.986Z,100.00
2022-10-10T06:53:27.924Z,100.00
2022-10-10T06:55:55.625Z,100.00
2022-10-10T06:58:24.683Z,100.00
2022-10-10T07:00:55.108Z,100.00
2022-10-10T07:03:22.364Z,100.00
2022-10-10T07:05:50.015Z,100.00
2022-10-10T07:08:16.560Z,100.00
2022-10-10T07:10:43.307Z,100.00
2022-10-10T07:13:09.841Z,100.00
2022-10-10T07:15:36.458Z,100.00
2022-10-10T07:18:03.141Z,100.00
2022-10-10T07:20:29.782Z,100.00
2022-10-10T07:22:56.450Z,100.00
2022-10-10T07:25:23.233Z,100.00
2022-10-10T07:27:49.806Z,100.00
2022-10-10T07:30:16.456Z,100.00
2022-10-10T07:32:43.649Z,100.00
2022-10-10T07:35:11.987Z,100.00
2022-10-10T07:37:38.947Z,100.00
2022-10-10T07:40:06.024Z,100.00
2022-10-10T07:42:32.613Z,100.00
2022-10-10T07:44:59.273Z,100.00
2022-10-10T07:47:25.859Z,100.00
2022-10-10T07:49:52.522Z,100.00
2022-10-10T07:52:19.105Z,100.00
2022-10-10T07:54:45.724Z,100.00
2022-10-10T07:57:12.315Z,100.00
2022-10-10T07:59:40.687Z,100.00
2022-10-10T08:02:07.505Z,100.00
2022-10-10T08:04:35.891Z,100.00
2022-10-10T08:07:02.538Z,100.00
2022-10-10T08:09:29.194Z,90.12
2022-10-10T08:11:55.815Z,86.38
2022-10-10T08:14:22.355Z,88.45
2022-10-10T08:16:48.926Z,86.07
2022-10-10T08:19:15.467Z,84.68
2022-10-10T08:21:42.071Z,82.82
2022-10-10T08:24:08.789Z,83.74
2022-10-10T08:26:35.387Z,82.71
2022-10-10T08:29:02.003Z,82.93
2022-10-10T08:31:29.002Z,80.50
2022-10-10T08:33:56.099Z,82.89
2022-10-10T08:36:23.787Z,82.45
2022-10-10T08:38:52.727Z,79.82
2022-10-10T08:41:31.580Z,78.64
2022-10-10T08:44:01.166Z,78.25
2022-10-10T08:46:39.716Z,77.61
2022-10-10T08:49:25.549Z,77.58
2022-10-10T08:51:58.210Z,78.70
2022-10-10T08:54:26.901Z,76.70
2022-10-10T08:56:58.081Z,75.57
2022-10-10T08:59:27.313Z,75.99
2022-10-10T09:02:18.347Z,74.63
2022-10-10T09:04:45.542Z,74.38
2022-10-10T09:07:25.009Z,73.49
2022-10-10T09:10:10.193Z,73.13
2022-10-10T09:12:54.635Z,72.88
2022-10-10T09:15:25.890Z,75.05
2022-10-10T09:17:55.555Z,72.27
2022-10-10T09:20:31.039Z,71.72
2022-10-10T09:23:08.100Z,71.68
2022-10-10T09:25:38.337Z,70.24
2022-10-10T09:28:21.699Z,71.18
2022-10-10T09:30:54.418Z,71.09
2022-10-10T09:36:14.984Z,68.06
2022-10-10T09:38:44.184Z,63.02
2022-10-10T09:46:12.512Z,62.12
2022-10-10T09:48:41.005Z,61.50
2022-10-10T09:51:12.597Z,60.11
2022-10-10T09:53:39.393Z,59.50
2022-10-10T09:56:07.232Z,58.67
2022-10-10T09:58:41.515Z,59.06
2022-10-10T10:01:23.711Z,59.26
2022-10-10T10:04:27.205Z,57.17
2022-10-10T10:07:03.341Z,56.97
2022-10-10T10:09:30.040Z,57.11
2022-10-10T10:11:57.536Z,55.32
2022-10-10T10:14:26.783Z,55.21
2022-10-10T10:16:55.236Z,57.14
2022-10-10T10:19:31.215Z,56.31
2022-10-10T10:21:57.875Z,54.46
2022-10-10T10:24:29.504Z,54.42
2022-10-10T10:26:56.235Z,57.04
2022-10-10T10:29:27.228Z,58.26
2022-10-10T10:31:59.380Z,56.05
2022-10-10T10:34:35.020Z,54.85
2022-10-10T10:37:17.913Z,54.23
2022-10-10T10:39:52.364Z,54.07
2022-10-10T10:42:29.830Z,53.63
2022-10-10T10:45:05.134Z,53.48
2022-10-10T10:47:46.759Z,53.07
2022-10-10T10:50:36.399Z,53.66
2022-10-10T10:53:27.532Z,53.33
2022-10-10T10:56:12.763Z,53.24
2022-10-10T11:01:56.302Z,53.09
2022-10-10T11:05:19.086Z,52.35
2022-10-10T11:07:23.108Z,54.00
2022-10-10T11:10:02.978Z,52.46
2022-10-10T11:12:29.650Z,53.39
2022-10-10T11:15:15.879Z,53.94
2022-10-10T11:17:50.715Z,54.55
2022-10-10T11:20:20.347Z,53.35
2022-10-10T11:22:53.721Z,53.42
2022-10-10T11:25:29.725Z,53.25
2022-10-10T11:27:56.480Z,52.00
2022-10-10T11:30:24.697Z,54.15
2022-10-10T11:32:59.180Z,54.51
2022-10-10T11:35:38.314Z,54.03
2022-10-10T11:38:25.173Z,55.43
2022-10-10T11:40:51.706Z,54.79
2022-10-10T11:43:40.753Z,55.84
2022-10-10T11:46:20.601Z,56.11
2022-10-10T11:48:50.687Z,56.51
2022-10-10T11:51:24.366Z,56.19
2022-10-10T11:53:53.826Z,55.50
2022-10-10T11:56:27.927Z,57.29
2022-10-10T11:59:00.564Z,56.50
2022-10-10T12:01:33.920Z,56.71
2022-10-10T12:04:00.670Z,56.71
2022-10-10T12:06:31.922Z,56.29
2022-10-10T12:08:58.558Z,57.64
2022-10-10T12:11:28.634Z,56.65
2022-10-10T12:13:57.162Z,55.47
2022-10-10T12:16:30.369Z,54.47
2022-10-10T12:19:02.209Z,56.07
2022-10-10T12:21:30.154Z,55.79
2022-10-10T12:24:01.460Z,54.66
2022-10-10T12:26:48.032Z,56.14
2022-10-10T12:29:14.574Z,54.86
2022-10-10T12:31:41.164Z,54.65
2022-10-10T12:34:10.622Z,54.33
2022-10-10T12:36:40.088Z,53.00
2022-10-10T12:39:07.952Z,52.97
2022-10-10T12:41:55.216Z,52.29
2022-10-10T12:44:26.357Z,51.13
2022-10-10T12:47:11.564Z,50.98
2022-10-10T12:49:38.269Z,51.65
2022-10-10T12:52:04.846Z,51.94
2022-10-10T12:54:34.539Z,52.02
2022-10-10T12:57:07.759Z,51.82
2022-10-10T12:59:35.688Z,51.47
2022-10-10T13:02:15.008Z,50.75
2022-10-10T13:04:42.987Z,51.59
2022-10-10T13:07:15.178Z,50.21
2022-10-10T13:09:43.611Z,51.54
2022-10-10T13:12:27.130Z,51.21
2022-10-10T13:14:53.811Z,51.10
2022-10-10T13:17:22.588Z,51.68
2022-10-10T13:19:49.500Z,50.50
2022-10-10T13:22:17.143Z,50.96
2022-10-10T13:24:44.267Z,51.25
2022-10-10T13:27:22.235Z,50.81
2022-10-10T13:29:48.870Z,52.45
2022-10-10T13:32:20.805Z,52.56
2022-10-10T13:34:50.103Z,52.35
2022-10-10T13:37:20.412Z,52.74
2022-10-10T13:39:48.776Z,51.82
2022-10-10T13:42:36.318Z,51.48
2022-10-10T13:45:24.147Z,52.42
2022-10-10T13:48:10.963Z,52.35
2022-10-10T13:50:43.911Z,52.70
2022-10-10T13:53:32.114Z,54.06
2022-10-10T13:56:20.750Z,54.39
2022-10-10T13:58:47.425Z,54.35
2022-10-10T14:01:52.302Z,55.83
2022-10-10T14:04:27.696Z,54.74
2022-10-10T14:06:54.685Z,55.32
2022-10-10T14:09:33.441Z,55.90
2022-10-10T14:12:02.119Z,57.59
2022-10-10T14:14:40.542Z,56.50
2022-10-10T14:17:08.633Z,57.89
2022-10-10T14:19:35.323Z,56.83
2022-10-10T14:22:01.946Z,55.92
2022-10-10T14:24:28.612Z,57.15
2022-10-10T14:26:55.424Z,56.93
2022-10-10T14:29:22.518Z,57.73
2022-10-10T14:31:49.162Z,57.96
2022-10-10T14:34:16.210Z,57.19
2022-10-10T14:36:46.604Z,57.26
2022-10-10T14:39:14.641Z,58.48
2022-10-10T14:41:41.329Z,57.56
2022-10-10T14:44:08.030Z,54.87
2022-10-10T14:46:34.977Z,53.15
2022-10-10T14:49:01.951Z,51.08
2022-10-10T14:51:33.232Z,48.81
2022-10-10T14:54:11.876Z,47.30
2022-10-10T14:57:08.362Z,47.15
2022-10-10T14:59:47.387Z,46.55
2022-10-10T15:02:15.554Z,47.67
2022-10-10T15:04:42.382Z,47.75
2022-10-10T15:07:14.691Z,47.56
2022-10-10T15:09:56.415Z,48.95
2022-10-10T15:12:29.012Z,51.33
2022-10-10T15:14:55.597Z,53.47
2022-10-10T15:17:25.637Z,56.69
2022-10-10T15:19:52.488Z,57.64
2022-10-10T15:22:19.638Z,58.81
2022-10-10T15:24:46.276Z,60.32
2022-10-10T15:27:13.001Z,60.79
2022-10-10T15:29:39.699Z,64.44
2022-10-10T15:32:06.685Z,62.03
2022-10-10T15:34:33.375Z,63.67
2022-10-10T15:36:59.977Z,63.77
2022-10-10T15:39:26.792Z,65.17
2022-10-10T15:41:53.342Z,66.79
2022-10-10T15:44:19.991Z,68.51
2022-10-10T15:46:46.704Z,68.50
2022-10-10T15:49:14.096Z,70.25
2022-10-10T15:51:43.730Z,70.74
2022-10-10T15:54:10.353Z,73.26
2022-10-10T15:56:37.173Z,73.00
2022-10-10T15:59:03.857Z,74.38
2022-10-10T16:01:31.087Z,75.95
2022-10-10T16:03:59.894Z,76.96
2022-10-10T16:06:26.856Z,77.54
2022-10-10T16:09:10.047Z,78.77
2022-10-10T16:11:40.875Z,78.60
2022-10-10T16:14:07.518Z,79.32
2022-10-10T16:16:34.159Z,79.25
2022-10-10T16:19:01.039Z,79.41
2022-10-10T16:21:27.799Z,80.82
2022-10-10T16:23:57.862Z,80.82
2022-10-10T16:26:26.838Z,81.45
2022-10-10T16:28:55.206Z,81.87
2022-10-10T16:31:21.859Z,82.81
2022-10-10T16:33:49.404Z,83.46
2022-10-10T16:36:23.764Z,82.98
2022-10-10T16:38:51.035Z,84.89
2022-10-10T16:41:42.624Z,90.99
2022-10-10T16:44:05.578Z,85.07
2022-10-10T16:46:32.610Z,84.94
2022-10-10T16:48:59.656Z,84.96
2022-10-10T16:51:28.410Z,86.68
2022-10-10T16:53:55.287Z,86.12
2022-10-10T16:56:22.330Z,88.18
2022-10-10T16:58:50.773Z,90.27
2022-10-10T17:01:18.941Z,91.52
2022-10-10T17:03:45.611Z,91.64
2022-10-10T17:06:15.905Z,93.11
2022-10-10T17:08:43.255Z,92.70
2022-10-10T17:11:09.976Z,100.00
2022-10-10T17:13:39.615Z,99.44
2022-10-10T17:16:44.688Z,97.45
2022-10-10T17:18:55.316Z,100.00
2022-10-10T17:21:22.921Z,99.56
2022-10-10T17:23:49.861Z,99.09
2022-10-10T17:26:17.615Z,100.00
2022-10-10T17:28:44.556Z,100.00
2022-10-10T17:31:14.941Z,100.00
2022-10-10T17:33:42.349Z,100.00
2022-10-10T17:36:10.451Z,100.00
2022-10-10T17:38:39.904Z,100.00
2022-10-10T17:41:07.447Z,100.00
2022-10-10T17:43:34.456Z,100.00
2022-10-10T17:46:21.905Z,100.00
2022-10-10T17:48:48.804Z,100.00
2022-10-10T17:51:16.542Z,100.00
2022-10-10T17:53:43.832Z,100.00
2022-10-10T17:56:12.173Z,100.00
2022-10-10T17:58:38.754Z,100.00
2022-10-10T18:01:05.853Z,100.00
2022-10-10T18:03:32.667Z,100.00
2022-10-10T18:06:04.688Z,100.00
2022-10-10T18:08:31.708Z,100.00
2022-10-10T18:10:58.926Z,100.00
2022-10-10T18:13:25.720Z,100.00
2022-10-10T18:16:06.240Z,100.00
2022-10-10T18:18:34.961Z,100.00
2022-10-10T18:21:03.022Z,100.00
2022-10-10T18:23:30.529Z,100.00
2022-10-10T18:26:01.417Z,100.00
2022-10-10T18:28:31.778Z,100.00
2022-10-10T18:30:58.724Z,100.00
2022-10-10T18:33:25.818Z,100.00
2022-10-10T18:35:52.339Z,100.00
2022-10-10T18:38:18.975Z,100.00
2022-10-10T18:40:45.534Z,100.00
2022-10-10T18:43:12.904Z,100.00
2022-10-10T18:45:39.592Z,100.00
2022-10-10T18:48:06.347Z,100.00
2022-10-10T18:50:32.957Z,100.00
2022-10-10T18:52:59.667Z,100.00
2022-10-10T18:55:30.325Z,100.00
2022-10-10T18:57:57.720Z,100.00
2022-10-10T19:00:27.560Z,100.00
2022-10-10T19:02:54.284Z,100.00
2022-10-10T19:05:20.972Z,100.00
2022-10-10T19:07:47.956Z,100.00
2022-10-10T19:10:14.707Z,100.00
2022-10-10T19:12:46.475Z,100.00
2022-10-10T19:15:14.876Z,100.00
2022-10-10T19:17:41.512Z,100.00
2022-10-10T19:20:08.305Z,100.00
2022-10-10T19:22:35.041Z,100.00
2022-10-10T19:25:02.975Z,100.00
2022-10-10T19:27:29.645Z,100.00
2022-10-10T19:29:56.264Z,100.00
2022-10-10T19:32:22.830Z,100.00
2022-10-10T19:34:49.443Z,100.00
2022-10-10T19:37:16.158Z,100.00
2022-10-10T19:39:42.701Z,100.00
2022-10-10T19:42:09.331Z,100.00
2022-10-10T19:44:35.941Z,100.00
2022-10-10T19:47:02.981Z,100.00
2022-10-10T19:49:30.356Z,100.00
2022-10-10T19:51:57.080Z,100.00
2022-10-10T19:54:23.725Z,100.00
2022-10-10T19:56:51.082Z,100.00
2022-10-10T19:59:17.820Z,100.00
2022-10-10T20:01:44.744Z,100.00
2022-10-10T20:04:12.126Z,100.00
2022-10-10T20:06:41.205Z,100.00
2022-10-10T20:09:10.853Z,100.00
2022-10-10T20:11:37.981Z,100.00
2022-10-10T20:14:07.483Z,100.00
2022-10-10T20:16:34.307Z,100.00
2022-10-10T20:19:00.998Z,100.00
2022-10-10T20:21:32.436Z,100.00
2022-10-10T20:24:00.605Z,100.00
2022-10-10T20:26:27.275Z,100.00
2022-10-10T20:28:54.838Z,100.00
2022-10-10T20:31:22.846Z,100.00
2022-10-10T20:33:52.745Z,100.00
2022-10-10T20:36:20.145Z,100.00
2022-10-10T20:38:57.155Z,100.00
2022-10-10T20:41:24.689Z,100.00
2022-10-10T20:43:55.459Z,100.00
2022-10-10T20:46:23.628Z,100.00
2022-10-10T20:48:53.434Z,100.00
2022-10-10T20:51:21.702Z,100.00
2022-10-10T20:53:56.654Z,100.00
2022-10-10T20:56:23.841Z,100.00
2022-10-10T20:58:50.720Z,100.00
2022-10-10T21:01:18.958Z,100.00
2022-10-10T21:03:46.410Z,100.00
2022-10-10T21:06:17.629Z,100.00
2022-10-10T21:08:49.141Z,100.00
2022-10-10T21:11:16.494Z,100.00
2022-10-10T21:13:46.233Z,100.00
2022-10-10T21:16:14.708Z,100.00
2022-10-10T21:18:53.555Z,100.00
2022-10-10T21:21:24.527Z,100.00
2022-10-10T21:23:55.821Z,100.00
2022-10-10T21:26:23.803Z,100.00
2022-10-10T21:28:50.755Z,100.00
2022-10-10T21:31:19.397Z,100.00
2022-10-10T21:33:48.059Z,100.00
2022-10-10T21:36:15.779Z,100.00
2022-10-10T21:38:42.388Z,100.00
2022-10-10T21:41:10.835Z,100.00
2022-10-10T21:43:38.658Z,100.00
2022-10-10T21:46:06.742Z,100.00
2022-10-10T21:48:34.073Z,100.00
2022-10-10T21:51:01.064Z,100.00
2022-10-10T21:53:28.026Z,100.00
2022-10-10T21:55:55.262Z,100.00
2022-10-10T21:58:22.893Z,100.00
2022-10-10T22:00:49.513Z,100.00
2022-10-10T22:03:16.536Z,100.00
2022-10-10T22:05:44.781Z,100.00
2022-10-10T22:08:11.445Z,100.00
2022-10-10T22:10:42.566Z,100.00
2022-10-10T22:13:09.187Z,100.00
2022-10-10T22:15:36.125Z,100.00
2022-10-10T22:18:02.751Z,100.00
2022-10-10T22:20:29.394Z,100.00
2022-10-10T22:22:56.067Z,100.00
2022-10-10T22:25:22.739Z,100.00
2022-10-10T22:27:49.346Z,100.00
2022-10-10T22:30:16.019Z,100.00
2022-10-10T22:32:42.737Z,100.00
2022-10-10T22:35:09.357Z,100.00
2022-10-10T22:37:37.377Z,100.00
2022-10-10T22:40:04.253Z,100.00
2022-10-10T22:42:30.978Z,100.00
2022-10-10T22:44:57.559Z,100.00
2022-10-10T22:47:24.153Z,100.00
2022-10-10T22:49:50.745Z,100.00
2022-10-10T22:52:17.443Z,100.00
2022-10-10T22:54:44.104Z,100.00
2022-10-10T22:57:11.043Z,100.00
2022-10-10T22:59:37.872Z,100.00
2022-10-10T23:02:04.550Z,100.00
2022-10-10T23:04:31.183Z,100.00
2022-10-10T23:06:57.883Z,100.00
2022-10-10T23:09:24.542Z,100.00
2022-10-10T23:11:51.144Z,100.00
2022-10-10T23:14:18.790Z,100.00
2022-10-10T23:16:45.379Z,100.00
2022-10-10T23:19:11.982Z,100.00
2022-10-10T23:21:38.597Z,100.00
2022-10-10T23:24:05.402Z,100.00
2022-10-10T23:26:32.037Z,100.00
2022-10-10T23:28:58.775Z,100.00
2022-10-10T23:31:25.534Z,100.00
2022-10-10T23:33:52.213Z,100.00
2022-10-10T23:36:18.945Z,100.00
2022-10-10T23:38:45.550Z,100.00
2022-10-10T23:41:12.689Z,100.00
2022-10-10T23:43:39.410Z,100.00
2022-10-10T23:46:06.633Z,100.00
2022-10-10T23:48:33.681Z,100.00
2022-10-10T23:51:00.262Z,100.00
2022-10-10T23:53:26.827Z,100.00
2022-10-10T23:55:53.445Z,100.00
2022-10-10T23:58:20.074Z,100.00
